sensor_id;sensor_type;location;lat;lon;timestamp;pressure;altitude;pressure_sealevel;temperature;humidity
68137;BME280;54939;50.826;9.030;2023-01-19T00:00:23;97409.53;;;5.30;68.75
68137;BME280;54939;50.826;9.030;2023-01-19T00:00:53;97400.75;;;5.29;68.67
68137;BME280;54939;50.826;9.030;2023-01-19T00:01:24;97404.22;;;5.30;69.20
68137;BME280;54939;50.826;9.030;2023-01-19T00:01:54;97409.38;;;5.31;69.08
68137;BME280;54939;50.826;9.030;2023-01-19T00:02:24;97404.22;;;5.30;69.22
68137;BME280;54939;50.826;9.030;2023-01-19T00:02:54;97411.34;;;5.29;68.90
68137;BME280;54939;50.826;9.030;2023-01-19T00:03:25;97410.34;;;5.30;69.08
68137;BME280;54939;50.826;9.030;2023-01-19T00:03:55;97414.81;;;5.30;68.93
68137;BME280;54939;50.826;9.030;2023-01-19T00:04:25;97401.59;;;5.30;68.73
68137;BME280;54939;50.826;9.030;2023-01-19T00:04:55;97409.53;;;5.30;69.34
68137;BME280;54939;50.826;9.030;2023-01-19T00:05:25;97408.69;;;5.29;68.81
68137;BME280;54939;50.826;9.030;2023-01-19T00:05:56;97409.53;;;5.30;68.76
68137;BME280;54939;50.826;9.030;2023-01-19T00:06:26;97407.84;;;5.29;69.18
68137;BME280;54939;50.826;9.030;2023-01-19T00:06:56;97411.19;;;5.31;69.10
68137;BME280;54939;50.826;9.030;2023-01-19T00:07:26;97409.53;;;5.30;69.24
68137;BME280;54939;50.826;9.030;2023-01-19T00:07:58;97410.34;;;5.30;69.05
68137;BME280;54939;50.826;9.030;2023-01-19T00:08:43;97407.84;;;5.29;69.09
68137;BME280;54939;50.826;9.030;2023-01-19T00:09:14;97403.69;;;5.26;69.62
68137;BME280;54939;50.826;9.030;2023-01-19T00:09:45;97409.81;;;5.27;69.08
68137;BME280;54939;50.826;9.030;2023-01-19T00:10:15;97407.34;;;5.25;69.32
68137;BME280;54939;50.826;9.030;2023-01-19T00:10:46;97406.50;;;5.25;69.35
68137;BME280;54939;50.826;9.030;2023-01-19T00:11:17;97408.16;;;5.26;69.03
68137;BME280;54939;50.826;9.030;2023-01-19T00:11:47;97405.50;;;5.26;69.02
68137;BME280;54939;50.826;9.030;2023-01-19T00:12:17;97408.31;;;5.24;69.12
68137;BME280;54939;50.826;9.030;2023-01-19T00:12:47;97408.16;;;5.26;69.03
68137;BME280;54939;50.826;9.030;2023-01-19T00:13:18;97408.16;;;5.26;68.96
68137;BME280;54939;50.826;9.030;2023-01-19T00:13:48;97402.06;;;5.25;68.98
68137;BME280;54939;50.826;9.030;2023-01-19T00:14:22;97405.50;;;5.26;68.92
68137;BME280;54939;50.826;9.030;2023-01-19T00:14:52;97405.50;;;5.26;69.22
68137;BME280;54939;50.826;9.030;2023-01-19T00:15:22;97409.81;;;5.27;69.00
68137;BME280;54939;50.826;9.030;2023-01-19T00:15:53;97412.63;;;5.25;69.24
68137;BME280;54939;50.826;9.030;2023-01-19T00:16:23;97418.72;;;5.26;68.94
68137;BME280;54939;50.826;9.030;2023-01-19T00:16:53;97414.44;;;5.25;69.22
68137;BME280;54939;50.826;9.030;2023-01-19T00:17:23;97410.97;;;5.24;68.71
68137;BME280;54939;50.826;9.030;2023-01-19T00:17:53;97409.31;;;5.23;69.24
68137;BME280;54939;50.826;9.030;2023-01-19T00:18:24;97411.94;;;5.23;68.96
68137;BME280;54939;50.826;9.030;2023-01-19T00:18:54;97410.13;;;5.24;69.36
68137;BME280;54939;50.826;9.030;2023-01-19T00:19:24;97414.44;;;5.25;69.05
68137;BME280;54939;50.826;9.030;2023-01-19T00:19:55;97418.91;;;5.24;69.27
68137;BME280;54939;50.826;9.030;2023-01-19T00:20:25;97420.72;;;5.24;69.30
68137;BME280;54939;50.826;9.030;2023-01-19T00:20:55;97410.97;;;5.24;69.24
68137;BME280;54939;50.826;9.030;2023-01-19T00:21:26;97421.56;;;5.24;69.36
68137;BME280;54939;50.826;9.030;2023-01-19T00:21:56;97413.63;;;5.24;69.17
68137;BME280;54939;50.826;9.030;2023-01-19T00:22:26;97416.25;;;5.24;68.84
68137;BME280;54939;50.826;9.030;2023-01-19T00:22:56;97418.06;;;5.24;68.93
68137;BME280;54939;50.826;9.030;2023-01-19T00:23:26;97418.91;;;5.24;69.14
68137;BME280;54939;50.826;9.030;2023-01-19T00:23:56;97412.78;;;5.24;69.06
68137;BME280;54939;50.826;9.030;2023-01-19T00:24:27;97418.22;;;5.22;69.04
68137;BME280;54939;50.826;9.030;2023-01-19T00:24:57;97409.31;;;5.23;69.19
68137;BME280;54939;50.826;9.030;2023-01-19T00:25:27;97420.72;;;5.24;69.25
68137;BME280;54939;50.826;9.030;2023-01-19T00:25:57;97412.78;;;5.24;69.04
68137;BME280;54939;50.826;9.030;2023-01-19T00:26:27;97413.75;;;5.23;69.01
68137;BME280;54939;50.826;9.030;2023-01-19T00:26:58;97417.38;;;5.22;69.10
68137;BME280;54939;50.826;9.030;2023-01-19T00:27:28;97417.38;;;5.22;68.95
68137;BME280;54939;50.826;9.030;2023-01-19T00:27:59;97412.94;;;5.22;69.38
68137;BME280;54939;50.826;9.030;2023-01-19T00:28:29;97413.06;;;5.21;68.87
68137;BME280;54939;50.826;9.030;2023-01-19T00:28:59;97411.25;;;5.21;69.49
68137;BME280;54939;50.826;9.030;2023-01-19T00:29:29;97414.75;;;5.22;69.08
68137;BME280;54939;50.826;9.030;2023-01-19T00:30:02;97417.25;;;5.23;68.90
68137;BME280;54939;50.826;9.030;2023-01-19T00:30:32;97416.41;;;5.23;68.82
68137;BME280;54939;50.826;9.030;2023-01-19T00:31:02;97414.75;;;5.22;69.24
68137;BME280;54939;50.826;9.030;2023-01-19T00:31:33;97411.13;;;5.23;68.90
68137;BME280;54939;50.826;9.030;2023-01-19T00:32:03;97417.38;;;5.22;69.01
68137;BME280;54939;50.826;9.030;2023-01-19T00:32:33;97413.75;;;5.23;69.41
68137;BME280;54939;50.826;9.030;2023-01-19T00:33:04;97417.38;;;5.22;69.39
68137;BME280;54939;50.826;9.030;2023-01-19T00:33:34;97417.38;;;5.22;69.37
68137;BME280;54939;50.826;9.030;2023-01-19T00:34:05;97415.72;;;5.21;68.96
68137;BME280;54939;50.826;9.030;2023-01-19T00:34:35;97413.06;;;5.21;69.23
68137;BME280;54939;50.826;9.030;2023-01-19T00:35:18;97423.66;;;5.21;69.05
68137;BME280;54939;50.826;9.030;2023-01-19T00:35:51;97416.56;;;5.21;69.28
68137;BME280;54939;50.826;9.030;2023-01-19T00:36:22;97415.72;;;5.21;69.16
68137;BME280;54939;50.826;9.030;2023-01-19T00:36:52;97417.38;;;5.22;69.43
68137;BME280;54939;50.826;9.030;2023-01-19T00:37:22;97424.34;;;5.23;69.32
68137;BME280;54939;50.826;9.030;2023-01-19T00:37:52;97417.38;;;5.22;68.93
68137;BME280;54939;50.826;9.030;2023-01-19T00:38:22;97412.94;;;5.22;69.51
68137;BME280;54939;50.826;9.030;2023-01-19T00:38:53;97417.25;;;5.23;69.31
68137;BME280;54939;50.826;9.030;2023-01-19T00:39:23;97425.19;;;5.23;68.61
68137;BME280;54939;50.826;9.030;2023-01-19T00:39:53;97418.22;;;5.22;69.39
68137;BME280;54939;50.826;9.030;2023-01-19T00:40:23;97418.22;;;5.22;68.85
68137;BME280;54939;50.826;9.030;2023-01-19T00:40:53;97420.88;;;5.22;68.76
68137;BME280;54939;50.826;9.030;2023-01-19T00:41:24;97428.81;;;5.22;69.30
68137;BME280;54939;50.826;9.030;2023-01-19T00:42:12;97426.16;;;5.22;69.18
68137;BME280;54939;50.826;9.030;2023-01-19T00:43:01;97426.31;;;5.21;68.99
68137;BME280;54939;50.826;9.030;2023-01-19T00:43:33;97426.31;;;5.21;68.71
68137;BME280;54939;50.826;9.030;2023-01-19T00:44:03;97417.38;;;5.22;69.18
68137;BME280;54939;50.826;9.030;2023-01-19T00:44:33;97429.09;;;5.19;69.50
68137;BME280;54939;50.826;9.030;2023-01-19T00:45:03;97423.66;;;5.21;68.82
68137;BME280;54939;50.826;9.030;2023-01-19T00:45:34;97428.28;;;5.19;69.14
68137;BME280;54939;50.826;9.030;2023-01-19T00:46:04;97427.97;;;5.22;69.46
68137;BME280;54939;50.826;9.030;2023-01-19T00:46:34;97426.31;;;5.21;69.17
68137;BME280;54939;50.826;9.030;2023-01-19T00:47:04;97425.47;;;5.20;68.85
68137;BME280;54939;50.826;9.030;2023-01-19T00:47:35;97429.09;;;5.19;69.33
68137;BME280;54939;50.826;9.030;2023-01-19T00:48:05;97426.31;;;5.21;69.41
68137;BME280;54939;50.826;9.030;2023-01-19T00:48:35;97432.56;;;5.20;69.23
68137;BME280;54939;50.826;9.030;2023-01-19T00:49:05;97437.72;;;5.21;69.47
68137;BME280;54939;50.826;9.030;2023-01-19T00:49:36;97429.78;;;5.21;69.29
68137;BME280;54939;50.826;9.030;2023-01-19T00:50:07;97431.44;;;5.22;68.91
68137;BME280;54939;50.826;9.030;2023-01-19T00:50:37;97432.44;;;5.21;69.20
68137;BME280;54939;50.826;9.030;2023-01-19T00:51:08;97435.22;;;5.20;69.55
68137;BME280;54939;50.826;9.030;2023-01-19T00:51:38;97433.56;;;5.19;69.37
68137;BME280;54939;50.826;9.030;2023-01-19T00:52:08;97424.81;;;5.18;68.55
68137;BME280;54939;50.826;9.030;2023-01-19T00:52:39;97429.25;;;5.18;69.34
68137;BME280;54939;50.826;9.030;2023-01-19T00:53:09;97431.91;;;5.18;69.29
68137;BME280;54939;50.826;9.030;2023-01-19T00:53:40;97436.22;;;5.19;69.15
68137;BME280;54939;50.826;9.030;2023-01-19T00:54:10;97432.75;;;5.18;68.88
68137;BME280;54939;50.826;9.030;2023-01-19T00:54:40;97429.09;;;5.19;69.26
68137;BME280;54939;50.826;9.030;2023-01-19T00:55:11;97429.09;;;5.19;68.87
68137;BME280;54939;50.826;9.030;2023-01-19T00:55:41;97433.56;;;5.19;69.26
68137;BME280;54939;50.826;9.030;2023-01-19T00:56:12;97433.72;;;5.17;69.40
68137;BME280;54939;50.826;9.030;2023-01-19T00:56:42;97436.22;;;5.19;69.35
68137;BME280;54939;50.826;9.030;2023-01-19T00:57:13;97437.19;;;5.18;69.61
68137;BME280;54939;50.826;9.030;2023-01-19T00:57:44;97432.88;;;5.17;69.26
68137;BME280;54939;50.826;9.030;2023-01-19T00:58:14;97428.44;;;5.17;69.31
68137;BME280;54939;50.826;9.030;2023-01-19T00:58:44;97437.19;;;5.18;68.96
68137;BME280;54939;50.826;9.030;2023-01-19T00:59:14;97433.72;;;5.17;69.35
68137;BME280;54939;50.826;9.030;2023-01-19T00:59:45;97438.19;;;5.17;68.97
68137;BME280;54939;50.826;9.030;2023-01-19T01:00:15;97430.25;;;5.17;68.89
68137;BME280;54939;50.826;9.030;2023-01-19T01:00:46;97436.22;;;5.19;69.18
68137;BME280;54939;50.826;9.030;2023-01-19T01:01:16;97434.56;;;5.18;68.93
68137;BME280;54939;50.826;9.030;2023-01-19T01:01:46;97434.38;;;5.19;68.92
68137;BME280;54939;50.826;9.030;2023-01-19T01:02:16;97430.94;;;5.19;68.74
68137;BME280;54939;50.826;9.030;2023-01-19T01:02:47;97435.38;;;5.18;69.37
68137;BME280;54939;50.826;9.030;2023-01-19T01:03:18;97433.72;;;5.17;68.88
68137;BME280;54939;50.826;9.030;2023-01-19T01:03:48;97431.91;;;5.18;69.35
68137;BME280;54939;50.826;9.030;2023-01-19T01:04:18;97441.50;;;5.19;69.36
68137;BME280;54939;50.826;9.030;2023-01-19T01:04:48;97438.03;;;5.18;69.11
68137;BME280;54939;50.826;9.030;2023-01-19T01:05:23;97439.00;;;5.17;69.50
68137;BME280;54939;50.826;9.030;2023-01-19T01:05:53;97434.56;;;5.18;69.52
68137;BME280;54939;50.826;9.030;2023-01-19T01:06:24;97443.31;;;5.18;69.36
68137;BME280;54939;50.826;9.030;2023-01-19T01:06:54;97447.78;;;5.18;69.07
68137;BME280;54939;50.826;9.030;2023-01-19T01:07:24;97445.97;;;5.18;69.18
68137;BME280;54939;50.826;9.030;2023-01-19T01:07:54;97438.19;;;5.17;68.84
68137;BME280;54939;50.826;9.030;2023-01-19T01:08:24;97444.31;;;5.17;68.96
68137;BME280;54939;50.826;9.030;2023-01-19T01:08:55;97443.47;;;5.17;68.89
68137;BME280;54939;50.826;9.030;2023-01-19T01:09:25;97440.81;;;5.17;69.10
68137;BME280;54939;50.826;9.030;2023-01-19T01:09:55;97440.81;;;5.17;69.30
68137;BME280;54939;50.826;9.030;2023-01-19T01:10:26;97442.63;;;5.16;69.28
68137;BME280;54939;50.826;9.030;2023-01-19T01:10:57;97444.31;;;5.17;68.90
68137;BME280;54939;50.826;9.030;2023-01-19T01:11:27;97439.16;;;5.15;68.89
68137;BME280;54939;50.826;9.030;2023-01-19T01:11:57;97447.78;;;5.18;68.95
68137;BME280;54939;50.826;9.030;2023-01-19T01:12:27;97443.47;;;5.17;69.45
68137;BME280;54939;50.826;9.030;2023-01-19T01:12:58;97442.50;;;5.18;69.09
68137;BME280;54939;50.826;9.030;2023-01-19T01:13:28;97442.63;;;5.16;69.27
68137;BME280;54939;50.826;9.030;2023-01-19T01:13:58;97447.94;;;5.16;69.22
68137;BME280;54939;50.826;9.030;2023-01-19T01:14:29;97441.81;;;5.15;69.59
68137;BME280;54939;50.826;9.030;2023-01-19T01:14:59;97444.44;;;5.15;69.05
68137;BME280;54939;50.826;9.030;2023-01-19T01:15:30;97448.91;;;5.15;69.42
68137;BME280;54939;50.826;9.030;2023-01-19T01:16:00;97443.63;;;5.15;68.91
68137;BME280;54939;50.826;9.030;2023-01-19T01:16:30;97447.09;;;5.15;69.39
68137;BME280;54939;50.826;9.030;2023-01-19T01:17:00;97449.59;;;5.17;68.94
68137;BME280;54939;50.826;9.030;2023-01-19T01:17:30;97444.44;;;5.15;69.19
68137;BME280;54939;50.826;9.030;2023-01-19T01:18:01;97449.75;;;5.15;69.21
68137;BME280;54939;50.826;9.030;2023-01-19T01:18:31;97444.44;;;5.15;69.51
68137;BME280;54939;50.826;9.030;2023-01-19T01:19:01;97445.44;;;5.14;69.33
68137;BME280;54939;50.826;9.030;2023-01-19T01:19:31;97448.06;;;5.14;69.22
68137;BME280;54939;50.826;9.030;2023-01-19T01:20:01;97448.06;;;5.14;69.11
68137;BME280;54939;50.826;9.030;2023-01-19T01:20:33;97443.63;;;5.15;69.45
68137;BME280;54939;50.826;9.030;2023-01-19T01:21:06;97451.56;;;5.15;69.50
68137;BME280;54939;50.826;9.030;2023-01-19T01:21:36;97440.13;;;5.14;69.52
68137;BME280;54939;50.826;9.030;2023-01-19T01:22:09;97444.44;;;5.15;69.13
68137;BME280;54939;50.826;9.030;2023-01-19T01:22:39;97450.56;;;5.16;68.85
68137;BME280;54939;50.826;9.030;2023-01-19T01:23:09;97455.03;;;5.15;68.76
68137;BME280;54939;50.826;9.030;2023-01-19T01:23:39;97453.22;;;5.16;69.15
68137;BME280;54939;50.826;9.030;2023-01-19T01:24:10;97454.19;;;5.15;69.46
68137;BME280;54939;50.826;9.030;2023-01-19T01:24:40;97448.91;;;5.15;69.03
68137;BME280;54939;50.826;9.030;2023-01-19T01:25:11;97450.72;;;5.14;69.18
68137;BME280;54939;50.826;9.030;2023-01-19T01:25:42;97450.72;;;5.14;69.10
68137;BME280;54939;50.826;9.030;2023-01-19T01:26:12;97449.03;;;5.13;69.40
68137;BME280;54939;50.826;9.030;2023-01-19T01:26:42;97452.53;;;5.14;69.37
68137;BME280;54939;50.826;9.030;2023-01-19T01:27:12;97448.22;;;5.13;68.93
68137;BME280;54939;50.826;9.030;2023-01-19T01:27:43;97453.50;;;5.13;69.59
68137;BME280;54939;50.826;9.030;2023-01-19T01:28:13;97444.72;;;5.12;69.23
68137;BME280;54939;50.826;9.030;2023-01-19T01:28:43;97448.22;;;5.13;69.39
68137;BME280;54939;50.826;9.030;2023-01-19T01:29:13;97452.53;;;5.14;69.24
68137;BME280;54939;50.826;9.030;2023-01-19T01:29:44;97452.53;;;5.14;69.17
68137;BME280;54939;50.826;9.030;2023-01-19T01:30:17;97450.72;;;5.14;69.08
68137;BME280;54939;50.826;9.030;2023-01-19T01:30:51;97450.72;;;5.14;69.32
68137;BME280;54939;50.826;9.030;2023-01-19T01:31:21;97456.00;;;5.14;69.08
68137;BME280;54939;50.826;9.030;2023-01-19T01:31:52;97448.91;;;5.15;68.97
68137;BME280;54939;50.826;9.030;2023-01-19T01:32:22;97450.72;;;5.14;68.99
68137;BME280;54939;50.826;9.030;2023-01-19T01:32:52;97454.19;;;5.15;69.60
68137;BME280;54939;50.826;9.030;2023-01-19T01:33:22;97443.75;;;5.13;69.32
68137;BME280;54939;50.826;9.030;2023-01-19T01:33:52;97449.03;;;5.13;69.10
68137;BME280;54939;50.826;9.030;2023-01-19T01:34:23;97452.53;;;5.14;69.00
68137;BME280;54939;50.826;9.030;2023-01-19T01:34:53;97447.22;;;5.14;69.19
68137;BME280;54939;50.826;9.030;2023-01-19T01:35:23;97452.38;;;5.15;68.96
68137;BME280;54939;50.826;9.030;2023-01-19T01:35:53;97450.56;;;5.16;69.59
68137;BME280;54939;50.826;9.030;2023-01-19T01:36:23;97451.41;;;5.17;68.96
68137;BME280;54939;50.826;9.030;2023-01-19T01:36:54;97449.75;;;5.15;69.23
68137;BME280;54939;50.826;9.030;2023-01-19T01:37:24;97454.19;;;5.15;69.26
68137;BME280;54939;50.826;9.030;2023-01-19T01:37:56;97450.72;;;5.14;69.18
68137;BME280;54939;50.826;9.030;2023-01-19T01:38:27;97453.34;;;5.14;69.68
68137;BME280;54939;50.826;9.030;2023-01-19T01:38:57;97456.16;;;5.13;68.98
68137;BME280;54939;50.826;9.030;2023-01-19T01:39:27;97448.22;;;5.13;69.20
68137;BME280;54939;50.826;9.030;2023-01-19T01:39:57;97448.38;;;5.11;69.36
68137;BME280;54939;50.826;9.030;2023-01-19T01:40:28;97452.66;;;5.12;69.38
68137;BME280;54939;50.826;9.030;2023-01-19T01:40:58;97454.47;;;5.12;68.90
68137;BME280;54939;50.826;9.030;2023-01-19T01:41:29;97451.84;;;5.12;68.89
68137;BME280;54939;50.826;9.030;2023-01-19T01:41:59;97450.03;;;5.12;68.99
68137;BME280;54939;50.826;9.030;2023-01-19T01:42:30;97451.03;;;5.11;69.33
68137;BME280;54939;50.826;9.030;2023-01-19T01:43:00;97456.31;;;5.11;69.17
68137;BME280;54939;50.826;9.030;2023-01-19T01:43:45;97454.34;;;5.13;69.25
68137;BME280;54939;50.826;9.030;2023-01-19T01:45:51;97448.06;;;5.14;69.36
68137;BME280;54939;50.826;9.030;2023-01-19T01:46:24;97449.88;;;5.14;68.92
68137;BME280;54939;50.826;9.030;2023-01-19T01:46:54;97448.38;;;5.11;69.42
68137;BME280;54939;50.826;9.030;2023-01-19T01:48:06;97453.69;;;5.11;69.03
68137;BME280;54939;50.826;9.030;2023-01-19T01:48:39;97452.84;;;5.11;69.13
68137;BME280;54939;50.826;9.030;2023-01-19T01:49:12;97457.31;;;5.10;69.28
68137;BME280;54939;50.826;9.030;2023-01-19T01:49:44;97456.47;;;5.10;69.04
68137;BME280;54939;50.826;9.030;2023-01-19T01:50:21;97456.47;;;5.10;68.82
68137;BME280;54939;50.826;9.030;2023-01-19T01:50:53;97458.28;;;5.09;69.35
68137;BME280;54939;50.826;9.030;2023-01-19T01:51:45;97458.28;;;5.09;69.29
68137;BME280;54939;50.826;9.030;2023-01-19T01:52:16;97452.00;;;5.10;68.79
68137;BME280;54939;50.826;9.030;2023-01-19T01:52:54;97456.47;;;5.10;69.38
68137;BME280;54939;50.826;9.030;2023-01-19T01:53:26;97458.97;;;5.11;69.09
68137;BME280;54939;50.826;9.030;2023-01-19T01:54:35;97461.63;;;5.11;68.89
68137;BME280;54939;50.826;9.030;2023-01-19T01:55:06;97451.84;;;5.12;69.07
68137;BME280;54939;50.826;9.030;2023-01-19T01:55:38;97456.31;;;5.11;69.02
68137;BME280;54939;50.826;9.030;2023-01-19T01:56:11;97456.31;;;5.11;68.89
68137;BME280;54939;50.826;9.030;2023-01-19T01:56:44;97458.13;;;5.11;68.63
68137;BME280;54939;50.826;9.030;2023-01-19T01:57:15;97454.66;;;5.10;68.80
68137;BME280;54939;50.826;9.030;2023-01-19T01:57:47;97453.69;;;5.11;69.02
68137;BME280;54939;50.826;9.030;2023-01-19T01:58:19;97458.97;;;5.11;69.00
68137;BME280;54939;50.826;9.030;2023-01-19T01:58:50;97463.25;;;5.12;69.20
68137;BME280;54939;50.826;9.030;2023-01-19T01:59:22;97457.13;;;5.12;69.17
68137;BME280;54939;50.826;9.030;2023-01-19T01:59:57;97453.69;;;5.11;69.18
68137;BME280;54939;50.826;9.030;2023-01-19T02:00:28;97460.78;;;5.11;69.21
68137;BME280;54939;50.826;9.030;2023-01-19T02:01:18;97455.78;;;5.08;69.22
68137;BME280;54939;50.826;9.030;2023-01-19T02:02:08;97451.31;;;5.08;69.05
68137;BME280;54939;50.826;9.030;2023-01-19T02:02:58;97452.28;;;5.07;69.25
68137;BME280;54939;50.826;9.030;2023-01-19T02:03:29;97450.47;;;5.08;69.20
68137;BME280;54939;50.826;9.030;2023-01-19T02:04:01;97452.16;;;5.09;69.09
68137;BME280;54939;50.826;9.030;2023-01-19T02:04:31;97445.34;;;5.06;69.10
68137;BME280;54939;50.826;9.030;2023-01-19T02:05:03;97452.28;;;5.07;69.44
68137;BME280;54939;50.826;9.030;2023-01-19T02:05:34;97446.03;;;5.08;69.04
68137;BME280;54939;50.826;9.030;2023-01-19T02:06:05;97447.84;;;5.08;69.38
68137;BME280;54939;50.826;9.030;2023-01-19T02:06:36;97447.00;;;5.07;69.06
68137;BME280;54939;50.826;9.030;2023-01-19T02:07:28;97448.69;;;5.08;69.58
68137;BME280;54939;50.826;9.030;2023-01-19T02:08:24;97452.44;;;5.06;69.41
68137;BME280;54939;50.826;9.030;2023-01-19T02:09:14;97450.47;;;5.08;69.24
68137;BME280;54939;50.826;9.030;2023-01-19T02:10:03;97449.66;;;5.07;69.39
68137;BME280;54939;50.826;9.030;2023-01-19T02:10:52;97447.16;;;5.06;69.03
68137;BME280;54939;50.826;9.030;2023-01-19T02:11:42;97454.09;;;5.07;69.40
68137;BME280;54939;50.826;9.030;2023-01-19T02:14:40;97442.69;;;5.06;69.18
68137;BME280;54939;50.826;9.030;2023-01-19T02:15:14;97449.66;;;5.07;69.47
68137;BME280;54939;50.826;9.030;2023-01-19T02:15:45;97457.59;;;5.07;68.92
68137;BME280;54939;50.826;9.030;2023-01-19T02:16:15;97454.94;;;5.07;69.60
68137;BME280;54939;50.826;9.030;2023-01-19T02:16:46;97454.09;;;5.07;69.37
68137;BME280;54939;50.826;9.030;2023-01-19T02:17:16;97455.91;;;5.06;69.40
68137;BME280;54939;50.826;9.030;2023-01-19T02:17:47;97453.28;;;5.06;69.13
68137;BME280;54939;50.826;9.030;2023-01-19T02:18:18;97454.09;;;5.07;68.86
68137;BME280;54939;50.826;9.030;2023-01-19T02:18:48;97446.16;;;5.07;69.42
68137;BME280;54939;50.826;9.030;2023-01-19T02:19:28;97454.94;;;5.07;69.24
68137;BME280;54939;50.826;9.030;2023-01-19T02:20:00;97455.78;;;5.08;69.52
68137;BME280;54939;50.826;9.030;2023-01-19T02:20:30;97451.31;;;5.08;69.21
68137;BME280;54939;50.826;9.030;2023-01-19T02:22:29;97453.97;;;5.08;69.00
68137;BME280;54939;50.826;9.030;2023-01-19T02:23:06;97451.47;;;5.07;69.31
68137;BME280;54939;50.826;9.030;2023-01-19T02:23:42;97456.59;;;5.08;69.31
68137;BME280;54939;50.826;9.030;2023-01-19T02:24:13;97458.41;;;5.08;69.28
68137;BME280;54939;50.826;9.030;2023-01-19T02:24:43;97453.13;;;5.08;69.28
68137;BME280;54939;50.826;9.030;2023-01-19T02:25:14;97457.44;;;5.09;69.44
68137;BME280;54939;50.826;9.030;2023-01-19T02:25:45;97453.97;;;5.08;69.11
68137;BME280;54939;50.826;9.030;2023-01-19T02:26:20;97455.63;;;5.09;68.97
68137;BME280;54939;50.826;9.030;2023-01-19T02:26:51;97461.06;;;5.08;68.84
68137;BME280;54939;50.826;9.030;2023-01-19T02:27:21;97460.09;;;5.09;69.11
68137;BME280;54939;50.826;9.030;2023-01-19T02:27:51;97457.72;;;5.06;68.98
68137;BME280;54939;50.826;9.030;2023-01-19T02:28:22;97451.47;;;5.07;69.10
68137;BME280;54939;50.826;9.030;2023-01-19T02:28:58;97460.38;;;5.06;69.34
68137;BME280;54939;50.826;9.030;2023-01-19T02:29:29;97463.03;;;5.06;69.29
68137;BME280;54939;50.826;9.030;2023-01-19T02:29:59;97455.91;;;5.06;69.25
68137;BME280;54939;50.826;9.030;2023-01-19T02:30:32;97457.59;;;5.07;69.20
68137;BME280;54939;50.826;9.030;2023-01-19T02:31:03;97463.84;;;5.06;69.51
68137;BME280;54939;50.826;9.030;2023-01-19T02:31:34;97458.56;;;5.06;69.43
68137;BME280;54939;50.826;9.030;2023-01-19T02:32:06;97454.25;;;5.05;69.12
68137;BME280;54939;50.826;9.030;2023-01-19T02:32:36;97464.00;;;5.05;69.38
68137;BME280;54939;50.826;9.030;2023-01-19T02:33:06;97459.53;;;5.05;68.82
68137;BME280;54939;50.826;9.030;2023-01-19T02:33:37;97457.91;;;5.04;68.86
68137;BME280;54939;50.826;9.030;2023-01-19T02:34:08;97455.25;;;5.04;69.28
68137;BME280;54939;50.826;9.030;2023-01-19T02:34:39;97456.06;;;5.05;69.20
68137;BME280;54939;50.826;9.030;2023-01-19T02:35:09;97459.53;;;5.05;69.13
68137;BME280;54939;50.826;9.030;2023-01-19T02:35:40;97455.25;;;5.04;69.22
68137;BME280;54939;50.826;9.030;2023-01-19T02:36:11;97457.91;;;5.04;69.21
68137;BME280;54939;50.826;9.030;2023-01-19T02:36:50;97462.19;;;5.05;68.94
68137;BME280;54939;50.826;9.030;2023-01-19T02:37:23;97459.53;;;5.05;69.29
68137;BME280;54939;50.826;9.030;2023-01-19T02:37:53;97453.13;;;5.08;69.32
68137;BME280;54939;50.826;9.030;2023-01-19T02:38:24;97452.44;;;5.06;68.71
68137;BME280;54939;50.826;9.030;2023-01-19T02:38:56;97454.94;;;5.07;69.44
68137;BME280;54939;50.826;9.030;2023-01-19T02:39:29;97461.22;;;5.06;69.11
68137;BME280;54939;50.826;9.030;2023-01-19T02:40:02;97453.28;;;5.06;69.09
68137;BME280;54939;50.826;9.030;2023-01-19T02:40:34;97454.25;;;5.05;69.60
68137;BME280;54939;50.826;9.030;2023-01-19T02:41:06;97451.59;;;5.05;69.07
68137;BME280;54939;50.826;9.030;2023-01-19T02:41:38;97454.44;;;5.04;69.18
68137;BME280;54939;50.826;9.030;2023-01-19T02:42:12;97455.41;;;5.03;69.37
68137;BME280;54939;50.826;9.030;2023-01-19T02:42:49;97450.94;;;5.03;69.17
68137;BME280;54939;50.826;9.030;2023-01-19T02:43:20;97453.72;;;5.02;69.50
68137;BME280;54939;50.826;9.030;2023-01-19T02:43:52;97449.28;;;5.02;69.45
68137;BME280;54939;50.826;9.030;2023-01-19T02:44:22;97453.72;;;5.02;69.35
68137;BME280;54939;50.826;9.030;2023-01-19T02:44:54;97451.94;;;5.02;69.53
68137;BME280;54939;50.826;9.030;2023-01-19T02:45:24;97441.19;;;5.04;68.97
68137;BME280;54939;50.826;9.030;2023-01-19T02:45:55;97446.63;;;5.02;69.57
68137;BME280;54939;50.826;9.030;2023-01-19T02:46:26;97452.75;;;5.03;69.76
68137;BME280;54939;50.826;9.030;2023-01-19T02:46:56;97448.31;;;5.03;69.55
68137;BME280;54939;50.826;9.030;2023-01-19T02:47:26;97453.59;;;5.03;69.18
68137;BME280;54939;50.826;9.030;2023-01-19T02:48:06;97445.66;;;5.03;69.33
68137;BME280;54939;50.826;9.030;2023-01-19T02:48:36;97447.47;;;5.03;69.26
68137;BME280;54939;50.826;9.030;2023-01-19T02:49:06;97452.63;;;5.04;69.14
68137;BME280;54939;50.826;9.030;2023-01-19T02:49:36;97442.84;;;5.05;69.62
68137;BME280;54939;50.826;9.030;2023-01-19T02:50:58;97439.38;;;5.04;69.45
68137;BME280;54939;50.826;9.030;2023-01-19T02:51:33;97442.03;;;5.04;68.85
68137;BME280;54939;50.826;9.030;2023-01-19T02:52:03;97443.84;;;5.04;69.14
68137;BME280;54939;50.826;9.030;2023-01-19T02:52:33;97441.19;;;5.04;69.00
68137;BME280;54939;50.826;9.030;2023-01-19T02:53:11;97440.38;;;5.03;69.58
68137;BME280;54939;50.826;9.030;2023-01-19T02:55:16;97439.53;;;5.03;68.80
68137;BME280;54939;50.826;9.030;2023-01-19T02:56:43;97442.19;;;5.03;69.42
68137;BME280;54939;50.826;9.030;2023-01-19T02:57:58;97442.19;;;5.03;68.85
68137;BME280;54939;50.826;9.030;2023-01-19T02:58:32;97439.53;;;5.03;69.29
68137;BME280;54939;50.826;9.030;2023-01-19T02:59:38;97441.50;;;5.01;69.51
68137;BME280;54939;50.826;9.030;2023-01-19T03:00:17;97447.59;;;5.01;69.57
68137;BME280;54939;50.826;9.030;2023-01-19T03:01:03;97439.81;;;5.00;69.32
68137;BME280;54939;50.826;9.030;2023-01-19T03:02:29;97433.03;;;4.97;69.37
68137;BME280;54939;50.826;9.030;2023-01-19T03:03:38;97443.63;;;4.97;69.60
68137;BME280;54939;50.826;9.030;2023-01-19T03:05:15;97436.34;;;4.99;69.72